Página principal
METAR-TAF:

METAR-TAF

Aeroportos :

Aeroporto Internacional de Ecaterimburgo-Koltsovo

Ecaterimburgo, Rússia

latitude: 56-50N, longitude: 060-38E, altura: 237 m

Observação actual do tempo

O boletim foi feito há 24 minutos, às 04:30 UTC
Vento 6 kt de oeste, variando entre sudoeste e noroeste
Temperatura 13°C
Humidade 30%
Pressão 1028 hPa
Visibilidade 10 km ou mais
sem nuvens abaixo de 1500 metros e sem cumulonimbus

METAR: USSS 230430Z 27003MPS 230V310 CAVOK 13/M04 Q1028 R26R/010060 NOSIG RMK QFE750/1000

Hora: 09:54 (04:54 UTC)

Previsão

O boletim foi feito há 2 horas e 54 minutos, às 02:00 UTC
Previsão válida de 23 às 03 UTC a 24 às 03 UTC
Vento 14 kt de noroeste
Visibilidade 10 km ou mais
Nuvens dispersasa uma altura de 3000 ft
Tornando-se
de 23 às 15 UTC a 23 às 16 UTC
Vento 6 kt de oeste

TAF: USSS 230200Z 2303/2403 31007MPS 9999 SCT030 BECMG 2315/2316 27003MPS

Observações e previsões do tempo de mais de 4000 aeroportos (mensagens METAR e TAF).

As estações disponíveis são os pontos amarelos e vermelhos sobre o mapa.

Mova o rato sobre o mapa para ver o nome da estação.

Depois clique no ponto para visualizar as observações e previsões meteorológicas.

Para alterar o mapa : clique nos botões verdes com uma cruz preta para aumentar o zoom; no botão verde com uma pitada de zoom; ou nas setas verdes para mapas adjacentes.


METAR-TAF: